• Join FlightAware (Why Join?)
  • Login
  • US Flag 
06:29AM EDT


 

Airport Tracker/Info


-or-


 

Live Flight TrackerFlight Track Log ✈ RPA3321 ✈ 03-Oct-2013 ✈ KALB - KDCA

Flight Track Log - Related Links

Times and Time Zones

All times are in EDT time to prevent confusion due to time zone crossing. See the RPA3321 flight status page for this flight to view local times or setup timezone preferences in your user account.

Time Position Orientation Groundspeed Altitude Reporting Facility
EDT Latitude Longitude Course Direction KTS MPH feet Rate Location/Type
07:00AM 42.7653 -73.8061 135° Southeast 156 180 1,600  Level Boston Center
07:01AM 42.7819 -73.8092 352° North 156 180 2,200 2,460 Climbing Boston Center
07:02AM 42.8642 -73.9075 319° Northwest 249 287 6,700 2,820 Climbing Boston Center
07:03AM 42.5258 -74.0002 171° South  Level Estimated
07:03AM 42.9069 -73.9681 314° West 249 287 9,900  Level Boston Center
07:04AM 42.4513 -74.0660 172° South  Level Estimated
07:04AM 42.9178 -74.0844 277° West 258 297 12,300  Level Boston Center
07:05AM 42.3884 -73.9809 135° Southeast  Level FlightAware Approximate
07:05AM 42.9103 -74.1836 264° West 288 331 14,900  Level Boston Center
07:06AM 42.8119 -74.2089 191° South 269 310 17,200 2,160 Climbing Boston Center
07:07AM 42.7147 -74.1611 160° South 329 379 19,300 2,040 Climbing Boston Center
07:08AM 42.6153 -74.1047 157° South 354 407 21,300 1,800 Climbing Boston Center
07:09AM 42.5161 -74.0428 155° Southeast 369 425 22,900 1,500 Climbing Boston Center
07:10AM 42.4128 -73.9811 156° South 396 456 24,400 1,500 Climbing Boston Center
07:11AM 42.3053 -73.9194 157° South 409 471 26,000 780 Climbing Boston Center
07:12AM 42.1936 -73.8525 156° South 429 494 26,000  Level Boston Center
07:13AM 42.0753 -73.8078 164° South 435 501 26,000  Level Boston Center
07:14AM 41.9669 -73.8139 182° South 440 506 26,000  Level Boston Center
07:15AM 41.8581 -73.8589 197° South 425 489 26,000  Level Boston Center
07:16AM 41.7447 -73.9147 200° South 406 467 26,000  Level Boston Center
07:19AM 41.5144 -74.0319 201° Southwest 406 467 26,000  Level New York Center
07:20AM 41.4064 -74.0903 202° Southwest 406 467 26,000  Level New York Center
07:21AM 41.3008 -74.1431 201° Southwest 411 473 26,000  Level New York Center
07:22AM 41.2142 -74.1883 201° Southwest 416 479 26,000  Level New York Center
07:23AM 41.0917 -74.2483 200° South 422 486 26,000  Level New York Center
07:24AM 40.9858 -74.3033 201° Southwest 422 486 26,000  Level New York Center
07:25AM 40.8803 -74.3553 200° South 416 479 26,000  Level New York Center
07:26AM 40.7761 -74.4211 206° Southwest 411 473 26,000  Level New York Center
07:27AM 40.7081 -74.5325 231° Southwest 401 461 26,000  Level New York Center
07:28AM 40.6394 -74.6492 232° Southwest 396 456 26,000  Level New York Center
07:29AM 40.5692 -74.7625 231° Southwest 403 464 26,000 -240 Level New York Center
07:30AM 40.4925 -74.8700 227° Southwest 410 472 25,600 -840 Descending New York Center
07:31AM 40.4200 -74.9719 227° Southwest 404 465 24,400 -1,200 Descending New York Center
07:32AM 40.3475 -75.0764 228° Southwest 393 452 23,200 -1,380 Descending New York Center
07:33AM 40.2706 -75.1886 228° Southwest 393 452 21,700 -1,380 Descending New York Center
07:34AM 40.2000 -75.2875 227° Southwest 388 447 20,500 -900 Descending New York Center
07:35AM 40.1275 -75.3858 226° Southwest 383 441 20,000 -300 Descending New York Center
07:36AM 40.0547 -75.4869 227° Southwest 383 441 20,000  Level New York Center
07:37AM 39.9839 -75.5850 227° Southwest 383 441 20,000  Level New York Center
07:38AM 39.9131 -75.6858 228° Southwest 383 441 20,000  Level New York Center
07:39AM 39.8542 -75.8006 236° Southwest 383 441 20,000  Level New York Center
07:40AM 39.7869 -75.9039 230° Southwest 383 441 20,000 -120 Level New York Center
07:41AM 39.7200 -76.0042 229° Southwest 383 441 19,800 -1,140 Descending New York Center
07:42AM 39.6550 -76.1047 230° Southwest 378 435 17,800 -1,860 Descending New York Center
07:43AM 39.5947 -76.1969 230° Southwest 378 435 16,100 -1,920 Descending New York Center
07:43AM 39.5500 -76.2667 230° Southwest 358 412 14,800 -1,980 Descending Potomac TRACON
07:44AM 39.5000 -76.3500 232° Southwest 346 398 13,200 -1,560 Descending Potomac TRACON
07:45AM 39.4333 -76.4333 224° Southwest 335 386 12,000 -600 Descending Potomac TRACON
07:46AM 39.3500 -76.5000 212° Southwest 336 387 12,000  Level Potomac TRACON
07:47AM 39.2667 -76.5667 212° Southwest 339 390 12,000 -720 Level Potomac TRACON
07:48AM 39.2167 -76.6333 226° Southwest 320 368 10,800 -1,080 Descending Potomac TRACON
07:49AM 39.1500 -76.7000 218° Southwest 278 320 10,000 -420 Descending Potomac TRACON
07:50AM 39.0833 -76.7500 210° Southwest 278 320 10,000 -780 Level Potomac TRACON
07:51AM 39.0333 -76.8167 226° Southwest 275 316 8,600 -1,740 Descending Potomac TRACON
07:52AM 38.9833 -76.8833 226° Southwest 270 311 6,700 -1,380 Descending Potomac TRACON
07:53AM 38.9333 -76.9333 218° Southwest 265 305 6,000 -360 Descending Potomac TRACON
07:54AM 38.8500 -76.9500 189° South 281 323 6,000 -780 Level Potomac TRACON
07:55AM 38.8000 -76.9500 180° South 275 316 4,600 -1,620 Descending Potomac TRACON
07:56AM 38.7167 -76.9667 189° South 269 310 3,100 -1,020 Descending Potomac TRACON
07:56AM 38.7333 -77.0167 293° West 216 249 2,700 -1,020 Descending Potomac TRACON
07:58AM 38.7833 -77.0333 345° North 154 177 1,100 -1,080 Descending Potomac TRACON
07:58AM 38.8167 -77.0333 360° North 117 135 600 -600 Descending Potomac TRACON